createdAt,value
2023-06-10T00:02:56.944Z,77.90
2023-06-10T00:06:00.821Z,78.33
2023-06-10T00:09:11.245Z,77.40
2023-06-10T00:12:16.170Z,77.49
2023-06-10T00:15:20.049Z,76.72
2023-06-10T00:18:23.792Z,77.18
2023-06-10T00:21:27.670Z,77.85
2023-06-10T00:24:33.091Z,77.46
2023-06-10T00:27:37.351Z,77.59
2023-06-10T00:30:41.217Z,76.93
2023-06-10T00:33:47.649Z,77.26
2023-06-10T00:36:51.813Z,77.05
2023-06-10T00:39:56.955Z,77.41
2023-06-10T00:43:00.965Z,76.90
2023-06-10T00:46:04.996Z,76.84
2023-06-10T00:49:09.404Z,76.74
2023-06-10T00:52:17.166Z,76.37
2023-06-10T00:55:22.622Z,76.31
2023-06-10T00:58:26.900Z,76.52
2023-06-10T01:01:32.090Z,75.86
2023-06-10T01:04:39.102Z,75.13
2023-06-10T01:07:50.060Z,76.47
2023-06-10T01:11:00.557Z,75.45
2023-06-10T01:14:08.854Z,75.52
2023-06-10T01:17:12.962Z,74.36
2023-06-10T01:20:18.549Z,75.29
2023-06-10T01:23:23.821Z,74.99
2023-06-10T01:26:33.562Z,74.70
2023-06-10T01:29:44.169Z,75.08
2023-06-10T01:32:51.259Z,75.84
2023-06-10T01:35:56.498Z,74.56
2023-06-10T01:39:03.184Z,74.98
2023-06-10T01:42:08.333Z,74.70
2023-06-10T01:45:13.808Z,75.32
2023-06-10T01:48:18.668Z,75.23
2023-06-10T01:51:22.702Z,75.28
2023-06-10T01:54:28.570Z,74.93
2023-06-10T01:57:32.649Z,75.78
2023-06-10T02:00:36.814Z,75.06
2023-06-10T02:03:41.021Z,75.87
2023-06-10T02:06:46.680Z,74.38
2023-06-10T02:09:52.362Z,73.93
2023-06-10T02:12:56.571Z,74.62
2023-06-10T02:16:01.358Z,74.99
2023-06-10T02:19:08.041Z,75.74
2023-06-10T02:22:12.734Z,75.26
2023-06-10T02:25:18.414Z,75.32
2023-06-10T02:28:22.420Z,75.27
2023-06-10T02:31:27.052Z,74.74
2023-06-10T02:34:32.527Z,75.74
2023-06-10T02:37:37.681Z,75.08
2023-06-10T02:40:43.566Z,75.36
2023-06-10T02:43:49.407Z,75.15
2023-06-10T02:46:54.113Z,75.67
2023-06-10T02:49:58.745Z,74.61
2023-06-10T02:53:03.101Z,75.39
2023-06-10T02:56:13.091Z,76.15
2023-06-10T02:59:17.580Z,75.28
2023-06-10T03:02:21.930Z,74.79
2023-06-10T03:05:29.364Z,76.45
2023-06-10T03:08:36.541Z,76.21
2023-06-10T03:11:46.732Z,73.32
2023-06-10T03:14:51.121Z,74.81
2023-06-10T03:17:55.914Z,75.29
2023-06-10T03:21:01.552Z,75.34
2023-06-10T03:24:06.739Z,75.68
2023-06-10T03:27:15.000Z,75.78
2023-06-10T03:30:22.181Z,74.94
2023-06-10T03:33:27.542Z,74.91
2023-06-10T03:36:31.951Z,73.29
2023-06-10T03:39:36.288Z,74.41
2023-06-10T03:42:42.092Z,74.32
2023-06-10T03:45:47.090Z,74.79
2023-06-10T03:48:51.250Z,73.33
2023-06-10T03:51:56.517Z,73.07
2023-06-10T03:55:00.934Z,74.54
2023-06-10T03:58:07.103Z,72.34
2023-06-10T04:01:12.073Z,72.27
2023-06-10T04:04:19.239Z,72.82
2023-06-10T04:07:25.180Z,72.60
2023-06-10T04:10:29.197Z,72.96
2023-06-10T04:13:34.753Z,72.15
2023-06-10T04:16:39.840Z,70.90
2023-06-10T04:19:44.120Z,71.61
2023-06-10T04:22:48.289Z,72.80
2023-06-10T04:25:53.647Z,73.26
2023-06-10T04:28:59.594Z,72.12
2023-06-10T04:32:03.844Z,71.83
2023-06-10T04:35:11.595Z,71.15
2023-06-10T04:38:16.152Z,70.51
2023-06-10T04:41:21.079Z,70.58
2023-06-10T04:44:26.678Z,69.84
2023-06-10T04:47:34.779Z,68.92
2023-06-10T04:50:39.050Z,68.73
2023-06-10T04:53:43.008Z,69.60
2023-06-10T04:56:47.113Z,71.14
2023-06-10T04:59:52.973Z,70.14
2023-06-10T05:02:57.644Z,68.47
2023-06-10T05:06:02.018Z,68.61
2023-06-10T05:09:06.768Z,68.31
2023-06-10T05:12:11.877Z,66.15
2023-06-10T05:15:17.588Z,65.95
2023-06-10T05:18:21.733Z,65.82
2023-06-10T05:21:26.033Z,67.82
2023-06-10T05:24:30.189Z,67.62
2023-06-10T05:27:34.458Z,67.52
2023-06-10T05:30:40.494Z,67.23
2023-06-10T05:33:44.724Z,66.35
2023-06-10T05:36:48.857Z,66.48
2023-06-10T05:39:53.036Z,64.55
2023-06-10T05:42:57.295Z,63.99
2023-06-10T05:46:03.116Z,62.86
2023-06-10T05:49:07.250Z,62.49
2023-06-10T05:52:11.661Z,62.81
2023-06-10T05:55:15.862Z,62.32
2023-06-10T05:58:20.129Z,63.57
2023-06-10T06:01:26.307Z,63.56
2023-06-10T06:04:30.568Z,62.35
2023-06-10T06:07:35.934Z,62.62
2023-06-10T06:10:40.073Z,63.04
2023-06-10T06:13:44.200Z,63.59
2023-06-10T06:16:49.893Z,64.55
2023-06-10T06:19:54.140Z,64.56
2023-06-10T06:22:58.368Z,63.62
2023-06-10T06:26:03.409Z,63.74
2023-06-10T06:29:07.571Z,63.57
2023-06-10T06:32:13.370Z,62.70
2023-06-10T06:35:17.476Z,63.53
2023-06-10T06:38:21.746Z,62.90
2023-06-10T06:41:27.098Z,62.56
2023-06-10T06:44:31.310Z,61.18
2023-06-10T06:47:37.052Z,60.25
2023-06-10T06:50:43.254Z,58.61
2023-06-10T06:53:47.504Z,57.41
2023-06-10T06:56:51.793Z,54.75
2023-06-10T06:59:55.867Z,55.68
2023-06-10T07:03:01.797Z,53.84
2023-06-10T07:06:06.459Z,52.40
2023-06-10T07:09:11.325Z,53.92
2023-06-10T07:12:15.520Z,53.38
2023-06-10T07:15:19.810Z,54.12
2023-06-10T07:18:25.465Z,56.09
2023-06-10T07:21:30.178Z,54.31
2023-06-10T07:24:34.209Z,54.56
2023-06-10T07:27:38.802Z,54.17
2023-06-10T07:30:43.115Z,52.34
2023-06-10T07:33:50.007Z,51.84
2023-06-10T07:36:54.101Z,50.73
2023-06-10T07:39:59.165Z,49.37
2023-06-10T07:43:03.428Z,48.55
2023-06-10T07:46:08.028Z,48.93
2023-06-10T07:49:13.773Z,47.77
2023-06-10T07:52:18.133Z,48.22
2023-06-10T07:55:22.516Z,48.67
2023-06-10T07:58:26.704Z,48.52
2023-06-10T08:01:31.664Z,47.15
2023-06-10T08:04:37.828Z,47.10
2023-06-10T08:07:43.137Z,46.04
2023-06-10T08:10:48.281Z,44.14
2023-06-10T08:13:52.425Z,44.74
2023-06-10T08:16:56.764Z,44.37
2023-06-10T08:20:03.114Z,45.74
2023-06-10T08:23:07.270Z,44.64
2023-06-10T08:26:11.572Z,43.93
2023-06-10T08:29:16.028Z,43.85
2023-06-10T08:32:20.272Z,42.64
2023-06-10T08:35:26.182Z,41.87
2023-06-10T08:38:30.431Z,43.02
2023-06-10T08:41:39.714Z,41.07
2023-06-10T08:44:45.083Z,41.57
2023-06-10T08:47:53.430Z,42.45
2023-06-10T08:51:00.694Z,41.87
2023-06-10T08:54:08.553Z,40.61
2023-06-10T08:57:12.973Z,39.58
2023-06-10T09:00:18.744Z,40.01
2023-06-10T09:03:25.676Z,40.02
2023-06-10T09:06:31.752Z,40.37
2023-06-10T09:09:38.084Z,40.41
2023-06-10T09:12:42.265Z,40.75
2023-06-10T09:15:47.306Z,41.56
2023-06-10T09:18:56.612Z,39.58
2023-06-10T09:22:02.423Z,38.44
2023-06-10T09:25:09.521Z,38.79
2023-06-10T09:28:16.712Z,38.46
2023-06-10T09:31:23.321Z,38.14
2023-06-10T09:34:29.193Z,38.28
2023-06-10T09:37:34.893Z,37.45
2023-06-10T09:40:52.565Z,37.09
2023-06-10T09:43:56.813Z,42.08
2023-06-10T09:47:01.317Z,45.83
2023-06-10T09:50:07.296Z,48.31
2023-06-10T09:53:14.935Z,48.79
2023-06-10T09:56:19.224Z,47.79
2023-06-10T09:59:33.466Z,47.82
2023-06-10T10:02:48.948Z,46.96
2023-06-10T10:06:02.166Z,46.60
2023-06-10T10:09:08.969Z,45.43
2023-06-10T10:12:14.541Z,43.94
2023-06-10T10:15:20.442Z,43.74
2023-06-10T10:18:30.355Z,42.64
2023-06-10T10:21:46.426Z,42.18
2023-06-10T10:24:54.292Z,42.40
2023-06-10T10:28:02.196Z,43.30
2023-06-10T10:31:13.348Z,44.72
2023-06-10T10:34:22.025Z,44.74
2023-06-10T10:37:26.976Z,44.67
2023-06-10T10:40:34.116Z,43.58
2023-06-10T10:43:38.743Z,42.55
2023-06-10T10:46:46.764Z,41.94
2023-06-10T10:49:54.153Z,42.13
2023-06-10T10:53:02.488Z,42.15
2023-06-10T10:56:12.190Z,42.91
2023-06-10T10:59:21.315Z,42.37
2023-06-10T11:02:44.693Z,43.37
2023-06-10T11:05:51.208Z,43.22
2023-06-10T11:08:56.203Z,44.13
2023-06-10T11:12:03.370Z,45.32
2023-06-10T11:15:08.608Z,44.64
2023-06-10T11:18:22.473Z,43.97
2023-06-10T11:21:29.144Z,43.61
2023-06-10T11:24:35.459Z,43.74
2023-06-10T11:27:42.467Z,43.36
2023-06-10T11:30:46.792Z,41.30
2023-06-10T11:33:54.945Z,40.29
2023-06-10T11:37:00.812Z,39.35
2023-06-10T11:40:05.944Z,39.51
2023-06-10T11:43:11.580Z,39.88
2023-06-10T11:46:16.957Z,39.38
2023-06-10T11:49:23.226Z,40.23
2023-06-10T11:52:30.614Z,40.71
2023-06-10T11:55:48.228Z,40.34
2023-06-10T11:58:58.647Z,39.69
2023-06-10T12:02:03.040Z,40.24
2023-06-10T12:05:13.995Z,39.66
2023-06-10T12:08:18.266Z,39.76
2023-06-10T12:11:24.532Z,39.06
2023-06-10T12:14:56.708Z,38.60
2023-06-10T12:18:01.258Z,38.40
2023-06-10T12:21:06.057Z,39.21
2023-06-10T12:24:12.602Z,38.48
2023-06-10T12:27:16.853Z,38.40
2023-06-10T12:30:23.897Z,37.94
2023-06-10T12:33:28.025Z,38.00
2023-06-10T12:36:33.932Z,38.56
2023-06-10T12:39:38.096Z,38.03
2023-06-10T12:42:43.250Z,38.61
2023-06-10T12:45:48.983Z,39.85
2023-06-10T12:48:55.700Z,40.62
2023-06-10T12:51:59.731Z,42.35
2023-06-10T12:55:05.655Z,43.53
2023-06-10T12:58:09.877Z,43.92
2023-06-10T13:01:15.899Z,44.17
2023-06-10T13:04:20.156Z,43.57
2023-06-10T13:07:24.982Z,43.81
2023-06-10T13:10:29.315Z,43.43
2023-06-10T13:13:33.579Z,43.91
2023-06-10T13:16:39.677Z,43.69
2023-06-10T13:19:43.976Z,43.08
2023-06-10T13:22:49.138Z,41.68
2023-06-10T13:25:53.387Z,40.39
2023-06-10T13:28:57.633Z,39.31
2023-06-10T13:32:03.269Z,39.25
2023-06-10T13:35:09.160Z,39.65
2023-06-10T13:38:13.995Z,38.72
2023-06-10T13:41:18.491Z,38.41
2023-06-10T13:44:22.630Z,38.45
2023-06-10T13:47:28.342Z,37.99
2023-06-10T13:50:32.633Z,37.37
2023-06-10T13:53:36.841Z,37.77
2023-06-10T13:56:41.043Z,38.40
2023-06-10T13:59:45.354Z,38.60
2023-06-10T14:02:51.151Z,36.79
2023-06-10T14:05:55.364Z,36.72
2023-06-10T14:08:59.699Z,36.85
2023-06-10T14:12:05.029Z,37.62
2023-06-10T14:15:10.461Z,38.12
2023-06-10T14:18:16.380Z,39.14
2023-06-10T14:21:20.596Z,39.71
2023-06-10T14:24:25.162Z,40.15
2023-06-10T14:27:29.350Z,39.27
2023-06-10T14:30:33.530Z,38.92
2023-06-10T14:33:39.133Z,38.97
2023-06-10T14:36:43.283Z,37.92
2023-06-10T14:39:47.421Z,38.18
2023-06-10T14:42:51.588Z,39.48
2023-06-10T14:45:57.369Z,39.09
2023-06-10T14:49:03.982Z,39.21
2023-06-10T14:52:08.632Z,37.59
2023-06-10T14:55:12.934Z,38.06
2023-06-10T14:58:17.584Z,38.07
2023-06-10T15:01:21.737Z,37.80
2023-06-10T15:04:27.513Z,37.71
2023-06-10T15:07:31.847Z,36.85
2023-06-10T15:10:36.032Z,36.62
2023-06-10T15:13:40.161Z,36.37
2023-06-10T15:16:44.333Z,35.70
2023-06-10T15:19:50.054Z,34.98
2023-06-10T15:22:55.191Z,35.50
2023-06-10T15:25:59.354Z,34.76
2023-06-10T15:29:05.861Z,34.82
2023-06-10T15:32:18.338Z,34.76
2023-06-10T15:35:25.006Z,35.33
2023-06-10T15:38:29.305Z,35.18
2023-06-10T15:41:33.458Z,35.77
2023-06-10T15:44:37.658Z,36.40
2023-06-10T15:47:42.976Z,36.41
2023-06-10T15:50:48.771Z,37.68
2023-06-10T15:53:53.036Z,36.90
2023-06-10T15:56:57.105Z,37.73
2023-06-10T16:00:01.401Z,37.90
2023-06-10T16:03:09.026Z,38.69
2023-06-10T16:06:14.688Z,39.71
2023-06-10T16:09:19.205Z,39.54
2023-06-10T16:12:23.516Z,39.11
2023-06-10T16:15:27.629Z,39.71
2023-06-10T16:18:31.894Z,40.01
2023-06-10T16:21:41.223Z,40.55
2023-06-10T16:24:45.484Z,40.87
2023-06-10T16:27:49.541Z,41.52
2023-06-10T16:30:53.846Z,41.54
2023-06-10T16:33:58.113Z,41.99
2023-06-10T16:37:04.321Z,42.25
2023-06-10T16:40:09.675Z,42.50
2023-06-10T16:43:13.862Z,43.32
2023-06-10T16:46:18.240Z,42.80
2023-06-10T16:49:22.680Z,43.29
2023-06-10T16:52:28.283Z,43.65
2023-06-10T16:55:32.473Z,43.76
2023-06-10T16:58:36.642Z,43.74
2023-06-10T17:01:40.888Z,43.94
2023-06-10T17:04:45.071Z,44.08
2023-06-10T17:07:51.072Z,44.18
2023-06-10T17:10:55.210Z,43.97
2023-06-10T17:13:59.467Z,44.18
2023-06-10T17:17:04.526Z,44.17
2023-06-10T17:20:09.795Z,43.85
2023-06-10T17:23:15.601Z,44.11
2023-06-10T17:26:19.867Z,44.40
2023-06-10T17:29:24.287Z,43.98
2023-06-10T17:32:28.583Z,44.12
2023-06-10T17:35:32.798Z,44.11
2023-06-10T17:38:38.508Z,44.15
2023-06-10T17:41:42.575Z,44.20
2023-06-10T17:44:46.727Z,44.61
2023-06-10T17:47:51.060Z,47.04
2023-06-10T17:50:55.299Z,50.23
2023-06-10T17:54:00.929Z,53.14
2023-06-10T17:57:05.343Z,53.39
2023-06-10T18:00:10.648Z,54.00
2023-06-10T18:03:16.886Z,54.06
2023-06-10T18:06:21.161Z,54.74
2023-06-10T18:09:27.357Z,54.97
2023-06-10T18:12:31.477Z,54.93
2023-06-10T18:15:37.750Z,56.11
2023-06-10T18:18:44.077Z,58.60
2023-06-10T18:21:48.062Z,59.93
2023-06-10T18:24:53.776Z,60.16
2023-06-10T18:27:57.926Z,61.13
2023-06-10T18:31:03.276Z,62.79
2023-06-10T18:34:07.473Z,62.75
2023-06-10T18:37:11.677Z,62.39
2023-06-10T18:40:19.320Z,61.53
2023-06-10T18:43:23.522Z,61.90
2023-06-10T18:46:27.769Z,61.60
2023-06-10T18:49:32.058Z,62.16
2023-06-10T18:52:36.298Z,62.86
2023-06-10T18:55:41.906Z,63.18
2023-06-10T18:58:48.041Z,63.31
2023-06-10T19:01:53.166Z,64.14
2023-06-10T19:04:57.278Z,63.96
2023-06-10T19:08:02.162Z,63.64
2023-06-10T19:11:09.020Z,64.75
2023-06-10T19:14:13.531Z,65.03
2023-06-10T19:17:17.986Z,65.47
2023-06-10T19:20:22.456Z,66.19
2023-06-10T19:23:26.736Z,65.99
2023-06-10T19:26:32.593Z,66.18
2023-06-10T19:29:36.756Z,66.27
2023-06-10T19:32:41.219Z,67.35
2023-06-10T19:35:45.598Z,67.90
2023-06-10T19:38:49.833Z,67.98
2023-06-10T19:41:55.504Z,68.19
2023-06-10T19:44:59.587Z,68.40
2023-06-10T19:48:03.975Z,69.15
2023-06-10T19:51:08.253Z,68.57
2023-06-10T19:54:12.378Z,68.82
2023-06-10T19:57:18.144Z,69.24
2023-06-10T20:00:22.306Z,68.97
2023-06-10T20:03:26.659Z,69.47
2023-06-10T20:06:30.904Z,68.56
2023-06-10T20:09:36.135Z,68.39
2023-06-10T20:12:41.967Z,67.35
2023-06-10T20:15:46.139Z,67.62
2023-06-10T20:18:53.952Z,67.66
2023-06-10T20:21:58.132Z,67.38
2023-06-10T20:25:02.548Z,67.78
2023-06-10T20:28:08.691Z,67.43
2023-06-10T20:31:12.875Z,68.35
2023-06-10T20:34:17.090Z,68.04
2023-06-10T20:37:21.307Z,68.65
2023-06-10T20:40:25.534Z,69.19
2023-06-10T20:43:31.192Z,69.34
2023-06-10T20:46:35.483Z,70.52
2023-06-10T20:49:39.649Z,70.11
2023-06-10T20:52:43.843Z,70.36
2023-06-10T20:55:48.130Z,71.06
2023-06-10T20:58:53.806Z,71.72
2023-06-10T21:01:58.083Z,70.81
2023-06-10T21:05:02.440Z,72.08
2023-06-10T21:08:07.657Z,70.89
2023-06-10T21:11:11.967Z,70.64
2023-06-10T21:14:17.540Z,72.15
2023-06-10T21:17:21.839Z,71.84
2023-06-10T21:20:25.956Z,72.21
2023-06-10T21:23:30.176Z,73.14
2023-06-10T21:26:36.167Z,73.35
2023-06-10T21:29:42.381Z,73.46
2023-06-10T21:32:47.226Z,74.32
2023-06-10T21:35:51.643Z,74.89
2023-06-10T21:38:55.897Z,74.78
2023-06-10T21:42:00.077Z,75.07
2023-06-10T21:45:06.341Z,73.96
2023-06-10T21:48:11.930Z,73.93
2023-06-10T21:51:16.218Z,73.25
2023-06-10T21:54:20.597Z,73.01
2023-06-10T21:57:25.463Z,72.70
2023-06-10T22:00:31.183Z,72.57
2023-06-10T22:03:35.360Z,72.01
2023-06-10T22:06:39.607Z,72.19
2023-06-10T22:09:49.440Z,73.83
2023-06-10T22:12:53.655Z,73.98
2023-06-10T22:15:59.269Z,74.30
2023-06-10T22:19:03.468Z,72.41
2023-06-10T22:22:08.652Z,71.99
2023-06-10T22:25:12.910Z,71.89
2023-06-10T22:28:17.418Z,72.02
2023-06-10T22:31:23.143Z,71.65
2023-06-10T22:34:27.435Z,70.91
2023-06-10T22:37:31.555Z,70.12
2023-06-10T22:40:35.783Z,69.95
2023-06-10T22:43:39.843Z,70.44
2023-06-10T22:46:45.544Z,70.93
2023-06-10T22:49:49.734Z,70.50
2023-06-10T22:52:54.932Z,70.70
2023-06-10T22:55:59.152Z,71.03
2023-06-10T22:59:03.984Z,71.63
2023-06-10T23:02:09.880Z,72.30
2023-06-10T23:05:14.261Z,71.39
2023-06-10T23:08:18.547Z,72.20
2023-06-10T23:11:22.641Z,71.52
2023-06-10T23:14:26.858Z,72.14
2023-06-10T23:17:32.496Z,72.64
2023-06-10T23:20:37.096Z,73.22
2023-06-10T23:23:42.119Z,73.10
2023-06-10T23:26:46.339Z,71.83
2023-06-10T23:32:59.916Z,71.88
2023-06-10T23:36:04.516Z,72.90
2023-06-10T23:39:08.641Z,73.50
2023-06-10T23:42:12.782Z,74.61
2023-06-10T23:45:17.098Z,73.88
2023-06-10T23:48:22.709Z,74.78
2023-06-10T23:51:26.754Z,74.67
2023-06-10T23:54:30.979Z,74.16
2023-06-10T23:57:35.106Z,75.23
